Terminal Aerodrome Forecast
Issued by NWS Bismarck, ND

Home | Current Version | Previous Version | Text Only | Print | Product List | Glossary Off
Versions: 1 2 3 4 5 6 7 8 9 10 11 12 13 14 15 16 17 18 19 20 21

000
FTUS43 KBIS 241125
TAFBIS
TAF
KBIS 241125Z 2412/2512 28007KT P6SM FEW250
     FM241800 30012G20KT P6SM SCT060
     FM250100 31008KT P6SM FEW080
     FM250600 12004KT P6SM FEW100=

USA.gov is the U.S. government's official web portal to all federal, state and local government web resources and services.